createdAt,value
2018-04-13T00:02:05.194Z,13.40
2018-04-13T00:04:33.336Z,13.40
2018-04-13T00:07:02.255Z,13.40
2018-04-13T00:09:35.957Z,13.40
2018-04-13T00:12:04.131Z,13.40
2018-04-13T00:14:32.225Z,13.40
2018-04-13T00:17:00.367Z,13.40
2018-04-13T00:19:28.473Z,13.40
2018-04-13T00:21:56.732Z,13.40
2018-04-13T00:24:31.408Z,13.30
2018-04-13T00:27:00.302Z,13.20
2018-04-13T00:29:29.325Z,13.20
2018-04-13T00:31:57.444Z,13.20
2018-04-13T00:34:25.670Z,13.20
2018-04-13T00:37:00.216Z,13.00
2018-04-13T00:39:28.440Z,13.00
2018-04-13T00:42:08.935Z,12.90
2018-04-13T00:44:42.776Z,12.90
2018-04-13T00:47:10.911Z,12.80
2018-04-13T00:49:39.073Z,12.80
2018-04-13T00:52:07.972Z,12.70
2018-04-13T00:54:42.176Z,12.70
2018-04-13T00:57:10.286Z,12.70
2018-04-13T00:59:38.407Z,12.70
2018-04-13T01:02:06.591Z,12.60
2018-04-13T01:04:34.765Z,12.60
2018-04-13T01:07:02.901Z,12.60
2018-04-13T01:09:37.315Z,12.70
2018-04-13T01:12:12.285Z,12.60
2018-04-13T01:14:40.416Z,12.60
2018-04-13T01:17:15.248Z,12.60
2018-04-13T01:19:44.277Z,12.50
2018-04-13T01:22:19.020Z,12.60
2018-04-13T01:24:47.287Z,12.60
2018-04-13T01:27:21.185Z,12.60
2018-04-13T01:29:49.324Z,12.60
2018-04-13T01:32:17.460Z,12.60
2018-04-13T01:34:45.806Z,12.50
2018-04-13T01:37:14.696Z,12.50
2018-04-13T01:39:42.804Z,12.50
2018-04-13T01:42:11.010Z,12.50
2018-04-13T01:44:44.890Z,12.50
2018-04-13T01:47:13.084Z,12.50
2018-04-13T01:49:41.963Z,12.50
2018-04-13T01:52:16.889Z,12.50
2018-04-13T01:54:51.840Z,12.40
2018-04-13T01:57:32.387Z,12.40
2018-04-13T02:00:01.374Z,12.30
2018-04-13T02:02:41.473Z,12.40
2018-04-13T02:05:15.223Z,12.30
2018-04-13T02:07:43.411Z,12.30
2018-04-13T02:10:24.067Z,12.30
2018-04-13T02:12:58.831Z,12.30
2018-04-13T02:15:26.950Z,12.30
2018-04-13T02:17:55.082Z,12.30
2018-04-13T02:20:23.254Z,12.30
2018-04-13T02:22:52.148Z,12.30
2018-04-13T02:25:20.285Z,12.30
2018-04-13T02:27:54.839Z,12.30
2018-04-13T02:30:23.066Z,12.20
2018-04-13T02:32:51.958Z,12.30
2018-04-13T02:35:20.891Z,12.30
2018-04-13T02:37:49.023Z,12.20
2018-04-13T02:40:17.916Z,12.20
2018-04-13T02:42:52.426Z,12.20
2018-04-13T02:45:27.032Z,12.20
2018-04-13T02:48:06.999Z,12.10
2018-04-13T02:50:35.904Z,12.10
2018-04-13T02:53:04.105Z,12.10
2018-04-13T02:55:32.225Z,12.20
2018-04-13T02:58:00.403Z,12.10
2018-04-13T03:00:29.310Z,12.10
2018-04-13T03:03:03.498Z,12.10
2018-04-13T03:05:32.442Z,12.20
2018-04-13T03:08:01.329Z,12.20
2018-04-13T03:10:41.123Z,12.20
2018-04-13T03:13:09.272Z,12.20
2018-04-13T03:15:37.418Z,12.10
2018-04-13T03:18:05.657Z,12.10
2018-04-13T03:20:34.662Z,12.10
2018-04-13T03:23:09.308Z,12.10
2018-04-13T03:25:37.447Z,12.10
2018-04-13T03:28:18.455Z,12.10
2018-04-13T03:30:46.665Z,12.10
2018-04-13T03:33:14.800Z,12.10
2018-04-13T03:35:49.012Z,12.00
2018-04-13T03:38:23.048Z,12.00
2018-04-13T03:40:51.294Z,12.00
2018-04-13T03:43:25.294Z,12.00
2018-04-13T03:45:59.238Z,12.00
2018-04-13T03:48:27.386Z,12.00
2018-04-13T03:50:55.502Z,12.00
2018-04-13T03:53:23.632Z,12.00
2018-04-13T03:55:57.840Z,11.90
2018-04-13T03:58:31.702Z,11.90
2018-04-13T04:01:06.472Z,11.90
2018-04-13T04:03:40.436Z,11.90
2018-04-13T04:06:09.333Z,12.00
2018-04-13T04:08:49.654Z,12.00
2018-04-13T04:11:23.532Z,12.00
2018-04-13T04:13:51.642Z,12.00
2018-04-13T04:16:25.630Z,12.00
2018-04-13T04:18:55.429Z,12.00
2018-04-13T04:21:35.366Z,12.00
2018-04-13T04:24:15.528Z,11.90
2018-04-13T04:26:49.344Z,11.90
2018-04-13T04:29:23.335Z,11.90
2018-04-13T04:31:57.211Z,11.90
2018-04-13T04:34:32.124Z,11.90
2018-04-13T04:37:00.212Z,11.80
2018-04-13T04:39:29.120Z,11.70
2018-04-13T04:42:02.937Z,11.70
2018-04-13T04:44:31.109Z,11.70
2018-04-13T04:47:05.121Z,11.70
2018-04-13T04:49:38.821Z,11.70
2018-04-13T04:52:06.976Z,11.70
2018-04-13T04:54:35.987Z,11.50
2018-04-13T04:57:04.076Z,11.40
2018-04-13T04:59:38.291Z,11.40
2018-04-13T05:02:07.219Z,11.30
2018-04-13T05:04:36.119Z,11.20
2018-04-13T05:07:10.979Z,11.10
2018-04-13T05:09:39.114Z,11.10
2018-04-13T05:12:08.057Z,11.10
2018-04-13T05:14:37.035Z,11.10
2018-04-13T05:17:05.154Z,11.00
2018-04-13T05:19:39.632Z,11.10
2018-04-13T05:22:07.775Z,11.10
2018-04-13T05:24:41.651Z,11.00
2018-04-13T05:27:09.799Z,10.90
2018-04-13T05:29:37.921Z,10.90
2018-04-13T05:32:06.117Z,11.00
2018-04-13T05:34:34.289Z,10.90
2018-04-13T05:37:02.466Z,11.00
2018-04-13T05:39:30.644Z,11.00
2018-04-13T05:41:58.778Z,11.00
2018-04-13T05:44:26.880Z,11.00
2018-04-13T05:46:55.048Z,11.00
2018-04-13T05:49:23.171Z,11.10
2018-04-13T05:51:57.007Z,11.30
2018-04-13T05:54:25.135Z,11.40
2018-04-13T05:56:59.217Z,11.60
2018-04-13T05:59:27.327Z,11.80
2018-04-13T06:02:01.392Z,12.00
2018-04-13T06:04:29.561Z,12.20
2018-04-13T06:06:58.455Z,12.80
2018-04-13T06:09:32.368Z,12.80
2018-04-13T06:12:00.531Z,13.00
2018-04-13T06:14:28.641Z,13.20
2018-04-13T06:16:56.779Z,13.30
2018-04-13T06:19:24.925Z,13.50
2018-04-13T06:21:53.902Z,13.70
2018-04-13T06:24:34.720Z,13.90
2018-04-13T06:27:02.840Z,13.80
2018-04-13T06:29:31.744Z,14.00
2018-04-13T06:32:00.623Z,14.20
2018-04-13T06:34:35.347Z,14.30
2018-04-13T06:37:04.225Z,14.30
2018-04-13T06:39:33.127Z,14.20
2018-04-13T06:42:01.389Z,14.20
2018-04-13T06:44:30.274Z,14.00
2018-04-13T06:46:59.201Z,14.00
2018-04-13T06:49:27.299Z,14.00
2018-04-13T06:51:55.553Z,14.10
2018-04-13T06:54:30.279Z,14.10
2018-04-13T06:56:59.143Z,14.10
2018-04-13T06:59:27.280Z,14.10
2018-04-13T07:01:55.442Z,14.20
2018-04-13T07:04:23.584Z,14.10
2018-04-13T07:06:51.802Z,14.10
2018-04-13T07:09:20.727Z,14.10
2018-04-13T07:11:49.758Z,14.30
2018-04-13T07:14:17.868Z,14.30
2018-04-13T07:16:46.801Z,14.60
2018-04-13T07:19:14.921Z,14.60
2018-04-13T07:21:43.043Z,14.70
2018-04-13T07:24:11.151Z,14.80
2018-04-13T07:26:45.254Z,14.90
2018-04-13T07:29:13.335Z,15.10
2018-04-13T07:31:41.479Z,15.30
2018-04-13T07:34:09.639Z,15.30
2018-04-13T07:36:37.751Z,15.40
2018-04-13T07:39:05.897Z,15.40
2018-04-13T07:41:34.156Z,15.40
2018-04-13T07:44:14.209Z,15.30
2018-04-13T07:46:42.358Z,15.20
2018-04-13T07:49:11.708Z,15.50
2018-04-13T07:51:51.126Z,15.40
2018-04-13T07:54:19.291Z,15.60
2018-04-13T07:56:47.446Z,15.70
2018-04-13T07:59:15.562Z,15.80
2018-04-13T08:01:55.442Z,15.80
2018-04-13T08:04:30.315Z,15.80
2018-04-13T08:06:58.423Z,15.70
2018-04-13T08:09:32.218Z,15.90
2018-04-13T08:12:06.265Z,16.10
2018-04-13T08:14:34.569Z,16.30
2018-04-13T08:17:09.224Z,16.30
2018-04-13T08:19:37.432Z,16.30
2018-04-13T08:22:12.498Z,16.30
2018-04-13T08:24:40.643Z,16.30
2018-04-13T08:27:09.637Z,16.60
2018-04-13T08:29:38.579Z,16.70
2018-04-13T08:32:12.728Z,16.70
2018-04-13T08:34:41.631Z,16.90
2018-04-13T08:37:16.278Z,16.90
2018-04-13T08:39:50.189Z,16.80
2018-04-13T08:42:18.319Z,16.80
2018-04-13T08:44:47.199Z,16.30
2018-04-13T08:47:16.242Z,16.20
2018-04-13T08:49:44.408Z,16.10
2018-04-13T08:52:13.266Z,16.00
2018-04-13T08:54:42.204Z,16.00
2018-04-13T08:57:10.375Z,15.90
2018-04-13T08:59:44.632Z,16.10
2018-04-13T09:02:12.793Z,16.30
2018-04-13T09:04:40.923Z,16.50
2018-04-13T09:07:09.052Z,16.60
2018-04-13T09:09:38.061Z,16.70
2018-04-13T09:12:06.256Z,16.60
2018-04-13T09:14:41.047Z,16.70
2018-04-13T09:17:09.974Z,16.80
2018-04-13T09:19:43.906Z,16.70
2018-04-13T09:22:17.787Z,16.90
2018-04-13T09:24:45.923Z,16.90
2018-04-13T09:27:14.954Z,16.80
2018-04-13T09:29:43.121Z,16.80
2018-04-13T09:32:11.227Z,16.80
2018-04-13T09:34:45.021Z,16.80
2018-04-13T09:37:19.073Z,16.90
2018-04-13T09:39:47.997Z,16.90
2018-04-13T09:42:16.171Z,16.90
2018-04-13T09:44:44.354Z,17.10
2018-04-13T09:47:12.450Z,17.30
2018-04-13T09:49:40.590Z,17.50
2018-04-13T09:52:20.842Z,17.60
2018-04-13T09:54:49.015Z,17.80
2018-04-13T09:57:17.157Z,18.00
2018-04-13T09:59:46.176Z,17.90
2018-04-13T10:02:19.965Z,17.90
2018-04-13T10:04:48.157Z,17.70
2018-04-13T10:07:16.332Z,17.50
2018-04-13T10:09:56.172Z,17.60
2018-04-13T10:12:25.027Z,17.80
2018-04-13T10:14:53.919Z,18.00
2018-04-13T10:17:28.881Z,18.20
2018-04-13T10:20:03.472Z,18.30
2018-04-13T10:22:38.292Z,18.50
2018-04-13T10:25:07.171Z,18.50
2018-04-13T10:27:35.326Z,18.50
2018-04-13T10:30:03.455Z,18.60
2018-04-13T10:32:31.596Z,18.60
2018-04-13T10:34:59.728Z,18.50
2018-04-13T10:37:27.885Z,18.40
2018-04-13T10:39:56.006Z,18.60
2018-04-13T10:42:24.115Z,18.40
2018-04-13T10:44:52.293Z,18.50
2018-04-13T10:47:21.190Z,18.20
2018-04-13T10:49:55.092Z,18.20
2018-04-13T10:52:23.221Z,18.10
2018-04-13T10:54:52.140Z,17.80
2018-04-13T10:57:20.285Z,17.70
2018-04-13T10:59:55.117Z,17.50
2018-04-13T11:02:29.877Z,17.30
2018-04-13T11:04:58.050Z,17.30
2018-04-13T11:07:27.045Z,17.00
2018-04-13T11:10:06.996Z,16.90
2018-04-13T11:12:35.163Z,17.20
2018-04-13T11:15:09.339Z,17.40
2018-04-13T11:17:38.219Z,18.10
2018-04-13T11:20:18.854Z,18.20
2018-04-13T11:22:52.702Z,18.20
2018-04-13T11:25:26.744Z,18.10
2018-04-13T11:28:06.180Z,17.90
2018-04-13T11:30:35.072Z,17.80
2018-04-13T11:33:03.182Z,17.80
2018-04-13T11:35:31.378Z,17.80
2018-04-13T11:38:06.152Z,17.90
2018-04-13T11:40:34.322Z,17.90
2018-04-13T11:43:02.484Z,18.20
2018-04-13T11:45:37.304Z,18.30
2018-04-13T11:48:06.198Z,18.40
2018-04-13T11:50:34.374Z,18.40
2018-04-13T11:53:03.279Z,18.40
2018-04-13T11:55:31.520Z,18.40
2018-04-13T11:57:59.663Z,18.40
2018-04-13T12:00:33.821Z,18.40
2018-04-13T12:03:01.922Z,18.40
2018-04-13T12:05:30.076Z,18.30
2018-04-13T12:07:58.191Z,18.20
2018-04-13T12:10:27.189Z,17.90
2018-04-13T12:12:56.075Z,18.00
2018-04-13T12:15:24.965Z,18.10
2018-04-13T12:17:53.106Z,18.00
2018-04-13T12:20:21.233Z,18.10
2018-04-13T12:22:49.426Z,18.20
2018-04-13T12:25:17.599Z,18.30
2018-04-13T12:27:45.721Z,18.50
2018-04-13T12:30:14.134Z,19.00
2018-04-13T12:32:43.045Z,19.60
2018-04-13T12:35:11.213Z,19.60
2018-04-13T12:37:39.331Z,19.80
2018-04-13T12:40:07.554Z,20.00
2018-04-13T12:42:36.441Z,19.80
2018-04-13T12:45:04.612Z,19.70
2018-04-13T12:47:32.794Z,19.50
2018-04-13T12:50:00.898Z,19.20
2018-04-13T12:52:29.053Z,18.80
2018-04-13T12:54:57.387Z,18.80
2018-04-13T12:57:25.373Z,18.70
2018-04-13T12:59:53.566Z,18.60
2018-04-13T13:02:21.659Z,18.50
2018-04-13T13:04:49.857Z,18.80
2018-04-13T13:07:18.770Z,19.10
2018-04-13T13:09:46.896Z,19.10
2018-04-13T13:12:15.095Z,19.20
2018-04-13T13:14:44.016Z,19.10
2018-04-13T13:17:12.196Z,19.10
2018-04-13T13:19:40.331Z,19.10
2018-04-13T13:22:09.240Z,19.10
2018-04-13T13:24:37.392Z,19.10
2018-04-13T13:27:06.388Z,19.50
2018-04-13T13:29:35.273Z,19.40
2018-04-13T13:32:04.308Z,19.40
2018-04-13T13:34:32.471Z,19.40
2018-04-13T13:37:00.575Z,19.70
2018-04-13T13:39:28.703Z,19.60
2018-04-13T13:41:56.828Z,19.70
2018-04-13T13:44:26.691Z,19.90
2018-04-13T13:46:55.568Z,20.40
2018-04-13T13:49:23.764Z,20.40
2018-04-13T13:51:51.933Z,20.60
2018-04-13T13:54:20.052Z,20.50
2018-04-13T13:56:48.272Z,19.90
2018-04-13T13:59:17.135Z,18.90
2018-04-13T14:01:45.299Z,18.90
2018-04-13T14:04:14.228Z,18.90
2018-04-13T14:06:42.345Z,18.90
2018-04-13T14:09:10.541Z,19.80
2018-04-13T14:11:39.456Z,21.90
2018-04-13T14:14:07.628Z,21.90
2018-04-13T14:16:36.621Z,24.10
2018-04-13T14:19:05.548Z,23.90
2018-04-13T14:21:33.675Z,23.90
2018-04-13T14:24:01.818Z,23.80
2018-04-13T14:26:30.835Z,24.70
2018-04-13T14:28:59.846Z,24.20
2018-04-13T14:31:28.011Z,24.10
2018-04-13T14:33:56.872Z,25.10
2018-04-13T14:36:25.791Z,25.70
2018-04-13T14:38:53.963Z,25.70
2018-04-13T14:41:22.857Z,26.80
2018-04-13T14:43:51.026Z,26.70
2018-04-13T14:46:19.132Z,26.90
2018-04-13T14:48:47.371Z,26.50
2018-04-13T14:51:15.552Z,26.40
2018-04-13T14:53:43.745Z,26.40
2018-04-13T14:56:11.986Z,27.40
2018-04-13T14:58:40.885Z,28.70
2018-04-13T15:01:09.034Z,28.50
2018-04-13T15:03:38.050Z,29.60
2018-04-13T15:06:06.196Z,29.50
2018-04-13T15:08:35.071Z,28.20
2018-04-13T15:11:08.837Z,28.20
2018-04-13T15:13:36.992Z,27.80
2018-04-13T15:16:05.152Z,26.80
2018-04-13T15:18:34.120Z,27.00
2018-04-13T15:21:02.297Z,27.00
2018-04-13T15:23:36.312Z,26.50
2018-04-13T15:26:04.471Z,25.60
2018-04-13T15:28:33.402Z,23.90
2018-04-13T15:31:01.518Z,23.80
2018-04-13T15:33:30.449Z,24.70
2018-04-13T15:35:58.621Z,24.60
2018-04-13T15:38:27.614Z,25.40
2018-04-13T15:40:55.749Z,25.30
2018-04-13T15:43:24.672Z,25.90
2018-04-13T15:45:53.569Z,27.30
2018-04-13T15:48:21.744Z,27.20
2018-04-13T15:50:49.887Z,27.40
2018-04-13T15:53:18.082Z,27.30
2018-04-13T15:55:46.945Z,27.60
2018-04-13T15:58:15.844Z,27.70
2018-04-13T16:00:43.966Z,27.70
2018-04-13T16:03:12.124Z,27.40
2018-04-13T16:05:40.247Z,27.20
2018-04-13T16:08:09.162Z,28.00
2018-04-13T16:10:38.051Z,28.10
2018-04-13T16:13:07.053Z,27.50
2018-04-13T16:15:35.203Z,27.50
2018-04-13T16:18:04.107Z,26.40
2018-04-13T16:20:33.102Z,24.40
2018-04-13T16:23:01.221Z,24.30
2018-04-13T16:25:29.342Z,22.90
2018-04-13T16:27:57.518Z,21.60
2018-04-13T16:30:25.687Z,20.70
2018-04-13T16:32:53.836Z,19.80
2018-04-13T16:35:22.000Z,18.90
2018-04-13T16:37:50.917Z,17.00
2018-04-13T16:40:19.100Z,17.00
2018-04-13T16:42:47.268Z,16.40
2018-04-13T16:45:15.391Z,16.00
2018-04-13T16:47:44.291Z,15.30
2018-04-13T16:50:13.218Z,15.30
2018-04-13T16:52:41.391Z,15.20
2018-04-13T16:55:09.531Z,15.40
2018-04-13T16:57:38.457Z,14.90
2018-04-13T17:00:06.624Z,14.90
2018-04-13T17:02:34.801Z,14.70
2018-04-13T17:05:02.975Z,14.60
2018-04-13T17:07:31.140Z,14.60
2018-04-13T17:09:59.318Z,14.40
2018-04-13T17:12:27.491Z,14.30
2018-04-13T17:14:55.685Z,14.30
2018-04-13T17:17:23.836Z,14.30
2018-04-13T17:19:51.946Z,14.30
2018-04-13T17:22:20.140Z,14.40
2018-04-13T17:27:23.788Z,14.40
2018-04-13T17:29:52.806Z,14.10
2018-04-13T17:32:20.938Z,14.00
2018-04-13T17:34:49.047Z,14.00
2018-04-13T17:37:17.204Z,13.80
2018-04-13T17:39:45.330Z,13.70
2018-04-13T17:42:14.356Z,13.30
2018-04-13T17:44:42.487Z,13.30
2018-04-13T17:47:10.705Z,13.30
2018-04-13T17:49:38.864Z,13.30
2018-04-13T17:52:07.775Z,13.10
2018-04-13T17:54:35.894Z,13.10
2018-04-13T17:57:04.827Z,13.10
2018-04-13T17:59:33.823Z,13.20
2018-04-13T18:02:01.965Z,13.10
2018-04-13T18:04:30.848Z,13.40
2018-04-13T18:06:59.840Z,13.40
2018-04-13T18:09:28.758Z,13.40
2018-04-13T18:11:56.889Z,13.40
2018-04-13T18:14:25.214Z,13.40
2018-04-13T18:16:53.353Z,13.30
2018-04-13T18:19:22.279Z,13.20
2018-04-13T18:21:50.417Z,13.10
2018-04-13T18:24:18.575Z,13.20
2018-04-13T18:26:47.611Z,13.20
2018-04-13T18:29:15.780Z,13.10
2018-04-13T18:31:43.904Z,13.10
2018-04-13T18:34:12.929Z,13.10
2018-04-13T18:36:41.059Z,13.10
2018-04-13T18:39:10.717Z,13.10
2018-04-13T18:41:38.873Z,13.10
2018-04-13T18:44:07.791Z,13.10
2018-04-13T18:46:35.940Z,13.00
2018-04-13T18:49:04.243Z,13.10
2018-04-13T18:51:32.402Z,13.00
2018-04-13T18:54:00.567Z,13.00
2018-04-13T18:56:28.743Z,13.00
2018-04-13T18:58:56.924Z,12.90
2018-04-13T19:01:25.105Z,12.80
2018-04-13T19:03:53.279Z,12.80
2018-04-13T19:06:21.457Z,12.60
2018-04-13T19:08:49.714Z,12.60
2018-04-13T19:11:17.844Z,12.60
2018-04-13T19:13:46.755Z,12.50
2018-04-13T19:16:14.915Z,12.50
2018-04-13T19:18:43.874Z,12.50
2018-04-13T19:21:12.057Z,12.50
2018-04-13T19:23:40.222Z,12.40
2018-04-13T19:26:09.244Z,12.30
2018-04-13T19:28:37.348Z,12.20
2018-04-13T19:31:05.475Z,12.10
2018-04-13T19:33:34.480Z,12.00
2018-04-13T19:36:02.559Z,12.00
2018-04-13T19:38:31.580Z,11.90
2018-04-13T19:40:59.695Z,11.90
2018-04-13T19:43:28.608Z,12.00
2018-04-13T19:45:57.564Z,12.00
2018-04-13T19:48:25.803Z,12.00
2018-04-13T19:50:54.657Z,12.10
2018-04-13T19:53:23.591Z,12.10
2018-04-13T19:55:51.951Z,12.00
2018-04-13T19:58:20.066Z,12.00
2018-04-13T20:00:49.721Z,11.90
2018-04-13T20:03:17.895Z,11.90
2018-04-13T20:05:46.074Z,11.90
2018-04-13T20:08:14.224Z,12.00
2018-04-13T20:10:43.121Z,12.10
2018-04-13T20:13:11.263Z,12.00
2018-04-13T20:15:40.195Z,12.10
2018-04-13T20:18:08.365Z,12.10
2018-04-13T20:20:36.532Z,12.10
2018-04-13T20:23:04.690Z,12.10
2018-04-13T20:25:33.657Z,12.10
2018-04-13T20:28:01.807Z,12.10
2018-04-13T20:30:29.982Z,12.20
2018-04-13T20:32:58.112Z,12.20
2018-04-13T20:35:26.289Z,12.10
2018-04-13T20:37:54.443Z,12.10
2018-04-13T20:40:22.596Z,12.10
2018-04-13T20:42:51.630Z,12.10
2018-04-13T20:45:19.803Z,12.00
2018-04-13T20:47:47.974Z,12.10
2018-04-13T20:50:16.965Z,12.00
2018-04-13T20:52:45.190Z,12.00
2018-04-13T20:55:14.126Z,11.90
2018-04-13T20:57:42.233Z,11.90
2018-04-13T21:00:10.395Z,11.90
2018-04-13T21:02:38.536Z,11.90
2018-04-13T21:05:06.707Z,11.80
2018-04-13T21:07:34.835Z,11.80
2018-04-13T21:10:02.985Z,11.70
2018-04-13T21:12:31.148Z,11.70
2018-04-13T21:14:59.317Z,11.60
2018-04-13T21:17:27.454Z,11.60
2018-04-13T21:19:55.637Z,11.60
2018-04-13T21:22:23.816Z,11.50
2018-04-13T21:24:51.989Z,11.50
2018-04-13T21:27:20.073Z,11.40
2018-04-13T21:29:48.312Z,11.40
2018-04-13T21:32:16.436Z,11.30
2018-04-13T21:34:44.642Z,11.30
2018-04-13T21:37:12.819Z,11.30
2018-04-13T21:39:41.732Z,11.20
2018-04-13T21:42:09.918Z,11.20
2018-04-13T21:44:38.049Z,11.20
2018-04-13T21:47:07.079Z,11.10
2018-04-13T21:49:35.175Z,11.10
2018-04-13T21:52:03.361Z,11.00
2018-04-13T21:54:31.492Z,10.90
2018-04-13T21:57:00.483Z,10.90
2018-04-13T21:59:28.605Z,10.80
2018-04-13T22:01:56.736Z,10.90
2018-04-13T22:04:25.000Z,10.80
2018-04-13T22:06:53.892Z,10.70
2018-04-13T22:09:22.061Z,10.70
2018-04-13T22:11:50.211Z,10.60
2018-04-13T22:14:30.851Z,10.50
2018-04-13T22:16:59.044Z,10.50
2018-04-13T22:19:28.065Z,10.40
2018-04-13T22:21:56.201Z,10.40
2018-04-13T22:24:25.233Z,10.30
2018-04-13T22:26:53.339Z,10.20
2018-04-13T22:29:21.570Z,10.20
2018-04-13T22:31:49.689Z,10.20
2018-04-13T22:34:17.925Z,10.10
2018-04-13T22:36:46.087Z,10.10
2018-04-13T22:39:14.984Z,10.10
2018-04-13T22:41:43.103Z,10.10
2018-04-13T22:44:11.219Z,10.10
2018-04-13T22:46:39.340Z,10.20
2018-04-13T22:49:07.536Z,10.20
2018-04-13T22:51:36.531Z,10.20
2018-04-13T22:54:05.547Z,10.20
2018-04-13T22:56:33.720Z,10.10
2018-04-13T22:59:01.819Z,10.10
2018-04-13T23:01:29.983Z,10.10
2018-04-13T23:03:58.139Z,10.00
2018-04-13T23:06:26.275Z,10.00
2018-04-13T23:08:55.283Z,10.00
2018-04-13T23:11:23.468Z,10.00
2018-04-13T23:13:52.460Z,9.90
2018-04-13T23:16:21.348Z,9.90
2018-04-13T23:18:49.576Z,9.80
2018-04-13T23:21:17.763Z,9.80
2018-04-13T23:23:46.685Z,9.80
2018-04-13T23:26:15.574Z,9.70
2018-04-13T23:28:43.723Z,9.70
2018-04-13T23:31:12.612Z,9.70
2018-04-13T23:33:40.732Z,9.70
2018-04-13T23:36:08.877Z,9.70
2018-04-13T23:38:37.053Z,9.60
2018-04-13T23:41:05.905Z,9.60
2018-04-13T23:43:34.834Z,9.60
2018-04-13T23:46:03.002Z,9.60
2018-04-13T23:48:31.890Z,9.50
2018-04-13T23:51:00.032Z,9.50
2018-04-13T23:53:28.950Z,9.50
2018-04-13T23:55:57.942Z,9.50
2018-04-13T23:58:26.935Z,9.50
